• Join FlightAware (Why Join?)
  • Login
  • US Flag GB Flag 
07:13 EDT


 

Airport Tracker/Info


-or-


 

Live Flight TrackerFlight Track Log ✈ SWA378 ✈ 29-Apr-2013 ✈ KSJC - KLAX

Flight Track Log - Related Links

Times and Time Zones

All times are in EDT time to prevent confusion due to time zone crossing. See the SWA378 flight status page for this flight to view local times or setup timezone preferences in your user account.

Time Position Orientation Groundspeed Altitude Reporting Facility
EDT Latitude Longitude Course Direction KTS MPH feet Rate Location/Type
11:41 37.4167 -121.9667 141° Southeast 198 228 2,900  Level Northern Cal TRACON
11:42 37.4333 -121.9167 67° East 235 270 4,800 1,500 Climbing Northern Cal TRACON
11:43 37.3833 -121.8667 142° Southeast 252 290 6,000 1,800 Climbing Northern Cal TRACON
11:44 37.3167 -121.7833 135° Southeast 298 343 8,500 2,340 Climbing Northern Cal TRACON
11:45 37.2647 -121.7189 135° Southeast 302 348 10,800 2,160 Climbing Oakland Center
11:46 36.9257 -121.4557 141° Southeast  Level Estimated
11:46 37.1939 -121.6353 137° Southeast 348 400 13,000  Level Oakland Center
11:47 37.1200 -121.5475 137° Southeast 364 419 15,800 2,520 Climbing Oakland Center
11:48 37.0294 -121.4517 140° Southeast 378 435 18,200 2,220 Climbing Oakland Center
11:49 36.9469 -121.3611 139° Southeast 395 455 20,400 2,160 Climbing Oakland Center
11:50 36.8633 -121.2672 138° Southeast 405 466 22,700 2,100 Climbing Oakland Center
11:51 36.7689 -121.1703 141° Southeast 409 471 24,800 1,800 Climbing Oakland Center
11:52 36.6803 -121.0742 139° Southeast 422 486 26,500 1,500 Climbing Oakland Center
11:53 36.5903 -120.9739 138° Southeast 433 498 27,900 1,380 Climbing Oakland Center
11:54 36.4961 -120.8731 139° Southeast 445 512 29,400 1,500 Climbing Oakland Center
11:55 36.4003 -120.7697 139° Southeast 456 525 31,000 1,740 Climbing Oakland Center
11:56 36.3017 -120.6631 139° Southeast 468 539 33,000 1,920 Climbing Oakland Center
11:57 36.2022 -120.5611 140° Southeast 464 534 35,000 1,800 Climbing Oakland Center
11:58 36.1044 -120.4567 139° Southeast 466 536 36,700 1,740 Climbing Oakland Center
11:59 35.9900 -120.3378 140° Southeast 427 491 38,600 1,080 Climbing Oakland Center
12:00 35.8939 -120.2361 139° Southeast 448 516 39,000 180 Climbing Oakland Center
12:01 35.7978 -120.1339 139° Southeast 452 520 39,000  Level Oakland Center
12:02 35.7017 -120.0336 140° Southeast 448 516 39,000  Level Oakland Center
12:03 35.6039 -119.9378 141° Southeast 446 513 39,000 -240 Level Oakland Center
12:04 35.4989 -119.8500 146° Southeast 450 518 38,600 -660 Descending Oakland Center
12:05 35.3964 -119.7617 145° Southeast 448 516 37,700 -840 Descending Oakland Center
12:06 35.2953 -119.6742 145° Southeast 448 516 37,000 -360 Descending Los Angeles Center
12:07 35.1925 -119.5875 145° Southeast 446 513 37,000  Level Los Angeles Center
12:08 35.0903 -119.5000 145° Southeast 446 513 37,000 -420 Level Los Angeles Center
12:09 34.9886 -119.4122 145° Southeast 446 513 36,200 -2,280 Descending Los Angeles Center
12:10 34.8667 -119.3092 145° Southeast 445 512 32,400 -4,560 Descending Los Angeles Center
12:11 34.7606 -119.2194 145° Southeast 461 531 26,800 -4,080 Descending Los Angeles Center
12:13 34.6539 -119.1289 145° Southeast 466 536 23,200 -2,820 Descending Los Angeles Center
12:14 34.5408 -119.0347 146° Southeast 437 503 20,400 -2,700 Descending Los Angeles Center
12:15 34.4281 -118.9417 146° Southeast 409 471 17,600 -2,400 Descending Los Angeles Center
12:16 34.3383 -118.8733 148° Southeast 382 440 15,500 -2,040 Descending Los Angeles Center
12:17 34.2397 -118.8386 164° South 368 423 13,400 -1,920 Descending Los Angeles Center
12:18 34.1472 -118.8047 163° South 351 404 11,600 -1,620 Descending Los Angeles Center
12:19 34.0597 -118.7503 153° Southeast 323 372 10,100 -780 Descending Los Angeles Center
12:20 34.0417 -118.6486 102° East 280 322 10,000 -360 Descending Los Angeles Center
12:21 34.0269 -118.5617 102° East 267 307 9,400 -1,020 Descending Los Angeles Center
12:22 34.0119 -118.4681 101° East 265 305 8,000 -1,500 Descending Los Angeles Center
12:23 34.0183 -118.3839 85° East 266 306 6,400 -1,740 Descending Los Angeles Center
12:24 34.0272 -118.2906 83° East 276 318 4,500 -1,320 Descending Los Angeles Center
12:25 34.0322 -118.2014 86° East 270 311 3,700 -660 Descending Los Angeles Center
12:26 33.9853 -118.1839 163° South 214 246 3,200 -780 Descending Los Angeles Center
12:27 33.9669 -118.2539 252° West 188 216 2,200 -780 Descending Los Angeles Center
12:28 33.9622 -118.3064 264° West 174 200 1,700 -660 Descending Los Angeles Center
12:29 33.9575 -118.3556 263° West 161 185 900 -720 Descending Los Angeles Center
12:30 33.9531 -118.4028 264° West 150 173 200 -720 Descending Los Angeles Center
12:32 33.9425 -118.4081 250° West  Level Estimated
12:39 33.9425 -118.4081 250° West  Level Estimated